Portada
METAR-TAF:

METAR-TAF

Aeroports :

Khon Kaen, Tailàndia

latitud: 16-26N, longitud: 102-50E, altitud: 165 m

Observació

L'informe es va fer fa 13 minuts, a les 21:00 UTC
Vent 2 kt amb direcció variable
Temperatura 25°C
Humitat 94%
Pressió 1006 hPa
Visibilitat: 8000 m
Núvols disperses a una alçada de 2500 ft
Cel ennuvolat a una alçada de 8000 ft
pluja

METAR: VTUK 152100Z VRB02KT 8000 -RA SCT025 BKN080 25/24 Q1006 NOSIG

Hora: 04:13 (21:13 UTC)

Pronòstic

L'informe es va fer fa 4 hores i 13 minuts, a les 17:00 UTC
Pronòstic vàlid del 15 a les 18 UTC al 16 a les 18 UTC
Vent 5 kt del Sud/Sud-Oest
Visibilitat: 9000 m
Núvols disperses a una alçada de 3000 ft
Temporalment
l' 16 a les 10 UTC al 16 a les 17 UTC
Visibilitat: 5000 m
Escasses núvols a una alçada de 1800 ft, Cumulonimbus.
tempesta, pluja

TAF: VTUK 151700Z 1518/1618 20005KT 9000 SCT030 TEMPO 1610/1617 5000 TSRA FEW018CB

Observacions i pronòstics meteorològics de més de 4000 aeroports (METAR i TAF).

Les estacions disponibles són els punts grocs i vermells al mapa.

Posi el ratolí al punt desitjat per veure el nom de l'estació.

Feu clic per veure les observacions i els pronòstics meteorològics.

Per canviar el mapa: feu clic els botons verds amb una creu de color negre per apropar; al botó verd amb un guió per allunyar la imatge; o en les fletxes verdes per a mapes adjacents.


METAR-TAF: